Terminal Aerodrome Forecast
Issued by NWS Shreveport, LA

Home | Current Version | Previous Version | Text Only | Print | Product List | Glossary On
Versions: 1 2 3 4 5 6 7 8 9 10 11 12 13 14
336
FTUS44 KSHV 310521 AAA
TAFLFK
TAF AMD
KLFK 310521Z 3105/0106 VRB03KT P6SM SCT250
     FM311300 VRB03KT P6SM SCT015 SCT250
     FM311600 21005KT P6SM SCT030 SCT250
     FM311900 19007KT P6SM SCT045 SCT250
     FM010000 17004KT P6SM FEW050 SCT250=

USA.gov is the U.S. government's official web portal to all federal, state and local government web resources and services.